createdAt,value
2023-01-07T00:00:05.984Z,100109.88
2023-01-07T00:00:37.530Z,100120.78
2023-01-07T00:01:08.981Z,100116.16
2023-01-07T00:01:40.416Z,100108.72
2023-01-07T00:02:11.894Z,100120.50
2023-01-07T00:02:43.331Z,100110.94
2023-01-07T00:03:14.830Z,100116.44
2023-01-07T00:03:46.272Z,100115.84
2023-01-07T00:04:17.750Z,100107.97
2023-01-07T00:04:49.208Z,100107.38
2023-01-07T00:05:20.643Z,100109.81
2023-01-07T00:05:52.074Z,100115.84
2023-01-07T00:06:23.511Z,100115.84
2023-01-07T00:06:54.911Z,100118.34
2023-01-07T00:07:26.383Z,100105.81
2023-01-07T00:07:57.814Z,100120.50
2023-01-07T00:08:29.272Z,100105.53
2023-01-07T00:09:00.657Z,100106.03
2023-01-07T00:09:32.102Z,100107.97
2023-01-07T00:10:03.518Z,100121.31
2023-01-07T00:10:34.903Z,100118.28
2023-01-07T00:11:06.362Z,100105.75
2023-01-07T00:11:37.778Z,100111.22
2023-01-07T00:12:09.552Z,100101.69
2023-01-07T00:12:41.002Z,100096.22
2023-01-07T00:13:12.460Z,100109.59
2023-01-07T00:13:43.900Z,100103.03
2023-01-07T00:14:15.404Z,100103.03
2023-01-07T00:14:46.856Z,100105.47
2023-01-07T00:15:18.308Z,100107.38
2023-01-07T00:15:49.788Z,100103.31
2023-01-07T00:16:21.348Z,100103.91
2023-01-07T00:16:52.850Z,100103.84
2023-01-07T00:17:24.332Z,100100.88
2023-01-07T00:17:55.809Z,100112.88
2023-01-07T00:18:27.202Z,100102.22
2023-01-07T00:18:58.655Z,100100.06
2023-01-07T00:19:30.071Z,100100.06
2023-01-07T00:20:01.517Z,100101.16
2023-01-07T00:20:32.944Z,100102.25
2023-01-07T00:21:04.370Z,100097.09
2023-01-07T00:21:35.822Z,100098.72
2023-01-07T00:22:07.283Z,100104.19
2023-01-07T00:22:41.475Z,100105.53
2023-01-07T00:23:12.959Z,100101.16
2023-01-07T00:23:44.361Z,100097.63
2023-01-07T00:24:18.183Z,100093.50
2023-01-07T00:24:49.926Z,100099.25
2023-01-07T00:25:21.352Z,100100.06
2023-01-07T00:25:52.781Z,100098.44
2023-01-07T00:26:24.182Z,100094.59
2023-01-07T00:26:55.612Z,100091.88
2023-01-07T00:27:27.033Z,100096.53
2023-01-07T00:27:58.478Z,100087.81
2023-01-07T00:28:29.937Z,100092.97
2023-01-07T00:29:01.491Z,100100.06
2023-01-07T00:29:32.957Z,100094.56
2023-01-07T00:30:04.454Z,100093.50
2023-01-07T00:30:35.886Z,100100.88
2023-01-07T00:31:07.418Z,100101.69
2023-01-07T00:31:38.971Z,100098.97
2023-01-07T00:32:10.475Z,100104.94
2023-01-07T00:32:41.908Z,100101.09
2023-01-07T00:33:13.335Z,100100.88
2023-01-07T00:33:44.756Z,100105.81
2023-01-07T00:34:16.143Z,100111.25
2023-01-07T00:34:47.638Z,100104.72
2023-01-07T00:35:19.040Z,100096.22
2023-01-07T00:35:50.460Z,100093.50
2023-01-07T00:36:21.887Z,100091.59
2023-01-07T00:36:53.316Z,100096.47
2023-01-07T00:37:24.778Z,100097.28
2023-01-07T00:37:56.217Z,100096.47
2023-01-07T00:38:27.636Z,100094.31
2023-01-07T00:38:59.036Z,100097.84
2023-01-07T00:39:30.437Z,100099.47
2023-01-07T00:40:02.151Z,100095.72
2023-01-07T00:40:33.581Z,100096.28
2023-01-07T00:41:05.059Z,100088.03
2023-01-07T00:41:36.486Z,100100.06
2023-01-07T00:42:07.953Z,100094.03
2023-01-07T00:42:39.376Z,100099.53
2023-01-07T00:43:10.817Z,100103.91
2023-01-07T00:43:42.224Z,100097.84
2023-01-07T00:44:13.657Z,100100.59
2023-01-07T00:44:45.091Z,100102.78
2023-01-07T00:45:16.522Z,100096.81
2023-01-07T00:45:47.941Z,100098.44
2023-01-07T00:46:19.434Z,100101.69
2023-01-07T00:46:50.969Z,100090.78
2023-01-07T00:47:22.438Z,100091.88
2023-01-07T00:47:53.833Z,100104.94
2023-01-07T00:48:25.317Z,100089.16
2023-01-07T00:48:56.779Z,100098.44
2023-01-07T00:49:28.299Z,100098.44
2023-01-07T00:49:59.706Z,100096.81
2023-01-07T00:50:31.183Z,100093.50
2023-01-07T00:51:02.751Z,100090.78
2023-01-07T00:51:34.178Z,100092.16
2023-01-07T00:52:05.645Z,100091.88
2023-01-07T00:52:37.061Z,100097.84
2023-01-07T00:53:08.527Z,100097.84
2023-01-07T00:53:40.015Z,100087.47
2023-01-07T00:54:11.418Z,100092.13
2023-01-07T00:54:42.859Z,100091.06
2023-01-07T00:55:14.285Z,100082.81
2023-01-07T00:55:45.795Z,100087.75
2023-01-07T00:56:17.222Z,100098.66
2023-01-07T00:56:48.670Z,100094.31
2023-01-07T00:57:20.114Z,100083.69
2023-01-07T00:57:51.492Z,100081.78
2023-01-07T00:58:22.896Z,100079.63
2023-01-07T00:58:54.286Z,100085.09
2023-01-07T00:59:25.695Z,100085.31
2023-01-07T00:59:57.143Z,100086.94
2023-01-07T01:00:28.552Z,100090.78
2023-01-07T01:01:00.170Z,100094.03
2023-01-07T01:01:31.742Z,100083.69
2023-01-07T01:02:03.517Z,100086.72
2023-01-07T01:02:35.086Z,100086.13
2023-01-07T01:03:06.529Z,100084.78
2023-01-07T01:03:37.945Z,100088.03
2023-01-07T01:04:09.333Z,100085.03
2023-01-07T01:04:40.698Z,100087.47
2023-01-07T01:05:12.075Z,100080.09
2023-01-07T01:05:43.567Z,100089.97
2023-01-07T01:06:15.077Z,100076.03
2023-01-07T01:06:46.565Z,100089.66
2023-01-07T01:07:18.000Z,100078.22
2023-01-07T01:07:49.425Z,100082.34
2023-01-07T01:08:20.924Z,100077.41
2023-01-07T01:08:52.373Z,100088.03
2023-01-07T01:09:23.779Z,100078.47
2023-01-07T01:09:55.188Z,100072.78
2023-01-07T01:10:26.632Z,100079.34
2023-01-07T01:10:58.049Z,100077.41
2023-01-07T01:11:29.625Z,100070.84
2023-01-07T01:12:01.087Z,100078.47
2023-01-07T01:12:32.486Z,100080.38
2023-01-07T01:13:04.008Z,100062.69
2023-01-07T01:13:35.409Z,100077.66
2023-01-07T01:14:06.852Z,100074.41
2023-01-07T01:14:38.325Z,100076.56
2023-01-07T01:15:09.807Z,100077.41
2023-01-07T01:15:41.206Z,100072.78
2023-01-07T01:16:12.633Z,100074.94
2023-01-07T01:16:44.236Z,100076.03
2023-01-07T01:17:15.703Z,100073.81
2023-01-07T01:17:47.126Z,100071.16
2023-01-07T01:18:18.551Z,100075.50
2023-01-07T01:18:49.989Z,100068.66
2023-01-07T01:19:21.418Z,100063.25
2023-01-07T01:19:52.841Z,100073.06
2023-01-07T01:20:24.245Z,100071.72
2023-01-07T01:20:55.675Z,100067.59
2023-01-07T01:21:27.157Z,100074.44
2023-01-07T01:21:58.665Z,100070.03
2023-01-07T01:22:30.115Z,100076.91
2023-01-07T01:23:01.540Z,100078.22
2023-01-07T01:23:33.003Z,100066.78
2023-01-07T01:24:04.527Z,100071.44
2023-01-07T01:24:35.957Z,100068.13
2023-01-07T01:25:07.447Z,100070.91
2023-01-07T01:25:38.902Z,100064.66
2023-01-07T01:26:10.322Z,100065.97
2023-01-07T01:26:41.744Z,100073.06
2023-01-07T01:27:13.270Z,100067.91
2023-01-07T01:27:44.717Z,100063.25
2023-01-07T01:28:16.132Z,100066.78
2023-01-07T01:28:47.647Z,100068.72
2023-01-07T01:29:19.093Z,100065.16
2023-01-07T01:29:50.518Z,100063.50
2023-01-07T01:30:21.968Z,100062.69
2023-01-07T01:30:53.463Z,100057.44
2023-01-07T01:31:24.936Z,100064.00
2023-01-07T01:31:56.428Z,100074.41
2023-01-07T01:32:27.849Z,100067.91
2023-01-07T01:32:59.269Z,100065.16
2023-01-07T01:33:30.713Z,100065.69
2023-01-07T01:34:02.162Z,100064.28
2023-01-07T01:34:33.557Z,100064.00
2023-01-07T01:35:05.136Z,100064.06
2023-01-07T01:35:36.526Z,100068.41
2023-01-07T01:36:08.118Z,100062.16
2023-01-07T01:36:39.622Z,100075.22
2023-01-07T01:37:11.037Z,100066.22
2023-01-07T01:37:42.427Z,100066.75
2023-01-07T01:38:13.827Z,100064.28
2023-01-07T01:38:45.238Z,100068.94
2023-01-07T01:39:16.630Z,100070.84
2023-01-07T01:39:48.082Z,100065.16
2023-01-07T01:40:19.479Z,100070.56
2023-01-07T01:40:50.900Z,100067.59
2023-01-07T01:41:22.381Z,100064.88
2023-01-07T01:41:53.795Z,100062.16
2023-01-07T01:42:25.257Z,100067.59
2023-01-07T01:42:56.675Z,100070.63
2023-01-07T01:43:28.181Z,100062.69
2023-01-07T01:43:59.653Z,100074.13
2023-01-07T01:44:31.054Z,100065.13
2023-01-07T01:45:03.002Z,100071.16
2023-01-07T01:45:34.505Z,100064.28
2023-01-07T01:46:06.021Z,100072.78
2023-01-07T01:46:37.573Z,100068.13
2023-01-07T01:47:09.038Z,100066.75
2023-01-07T01:47:40.527Z,100073.59
2023-01-07T01:48:11.950Z,100068.38
2023-01-07T01:48:43.407Z,100062.69
2023-01-07T01:49:14.886Z,100076.84
2023-01-07T01:49:46.313Z,100064.59
2023-01-07T01:50:17.792Z,100070.63
2023-01-07T01:50:49.233Z,100064.06
2023-01-07T01:51:20.635Z,100060.22
2023-01-07T01:51:52.142Z,100054.78
2023-01-07T01:52:23.569Z,100060.53
2023-01-07T01:52:55.016Z,100063.53
2023-01-07T01:53:26.413Z,100068.41
2023-01-07T01:53:57.839Z,100060.75
2023-01-07T01:54:29.228Z,100059.72
2023-01-07T01:55:00.640Z,100058.03
2023-01-07T01:55:32.078Z,100058.03
2023-01-07T01:56:03.467Z,100054.78
2023-01-07T01:56:34.908Z,100063.50
2023-01-07T01:57:06.484Z,100062.69
2023-01-07T01:57:37.907Z,100053.69
2023-01-07T01:58:09.411Z,100053.97
2023-01-07T01:58:40.837Z,100062.97
2023-01-07T01:59:12.341Z,100058.03
2023-01-07T01:59:43.726Z,100064.06
2023-01-07T02:00:15.191Z,100062.97
2023-01-07T02:00:46.645Z,100054.78
2023-01-07T02:01:18.188Z,100053.16
2023-01-07T02:01:49.766Z,100062.97
2023-01-07T02:02:21.259Z,100050.38
2023-01-07T02:02:52.719Z,100054.78
2023-01-07T02:03:24.194Z,100062.09
2023-01-07T02:03:55.622Z,100061.84
2023-01-07T02:04:27.064Z,100059.66
2023-01-07T02:04:58.533Z,100053.38
2023-01-07T02:05:29.977Z,100062.97
2023-01-07T02:06:01.409Z,100058.84
2023-01-07T02:06:32.822Z,100057.75
2023-01-07T02:07:04.228Z,100065.13
2023-01-07T02:07:35.731Z,100058.56
2023-01-07T02:08:07.135Z,100067.03
2023-01-07T02:08:38.585Z,100055.00
2023-01-07T02:09:10.053Z,100059.66
2023-01-07T02:09:41.552Z,100058.56
2023-01-07T02:10:13.013Z,100059.66
2023-01-07T02:10:44.428Z,100062.09
2023-01-07T02:11:15.834Z,100061.84
2023-01-07T02:11:47.273Z,100064.06
2023-01-07T02:12:18.701Z,100061.84
2023-01-07T02:12:50.126Z,100064.88
2023-01-07T02:13:21.584Z,100062.97
2023-01-07T02:13:52.990Z,100069.00
2023-01-07T02:14:24.422Z,100067.59
2023-01-07T02:14:55.904Z,100062.69
2023-01-07T02:15:27.439Z,100065.69
2023-01-07T02:15:58.931Z,100060.22
2023-01-07T02:16:30.451Z,100064.06
2023-01-07T02:17:01.871Z,100058.59
2023-01-07T02:17:33.266Z,100065.69
2023-01-07T02:18:04.754Z,100059.19
2023-01-07T02:18:36.146Z,100064.06
2023-01-07T02:19:07.608Z,100056.16
2023-01-07T02:19:39.043Z,100058.59
2023-01-07T02:20:10.510Z,100059.41
2023-01-07T02:20:41.972Z,100059.66
2023-01-07T02:21:13.389Z,100057.75
2023-01-07T02:21:44.871Z,100054.19
2023-01-07T02:22:16.257Z,100053.38
2023-01-07T02:22:47.644Z,100050.88
2023-01-07T02:23:19.033Z,100059.66
2023-01-07T02:23:50.434Z,100057.78
2023-01-07T02:24:21.906Z,100055.81
2023-01-07T02:24:53.320Z,100057.75
2023-01-07T02:25:24.737Z,100050.66
2023-01-07T02:25:56.149Z,100050.41
2023-01-07T02:26:27.551Z,100050.13
2023-01-07T02:26:59.077Z,100050.94
2023-01-07T02:27:30.628Z,100049.84
2023-01-07T02:28:02.107Z,100051.53
2023-01-07T02:28:33.524Z,100050.41
2023-01-07T02:29:04.971Z,100061.63
2023-01-07T02:29:36.387Z,100043.88
2023-01-07T02:30:07.879Z,100054.25
2023-01-07T02:30:39.325Z,100053.16
2023-01-07T02:31:10.773Z,100050.72
2023-01-07T02:31:42.226Z,100053.16
2023-01-07T02:32:13.664Z,100046.06
2023-01-07T02:32:45.051Z,100055.34
2023-01-07T02:33:16.470Z,100053.72
2023-01-07T02:33:47.885Z,100052.63
2023-01-07T02:34:19.329Z,100053.16
2023-01-07T02:34:50.816Z,100046.06
2023-01-07T02:35:22.359Z,100058.59
2023-01-07T02:35:53.781Z,100049.91
2023-01-07T02:36:25.185Z,100057.50
2023-01-07T02:36:56.623Z,100048.28
2023-01-07T02:37:28.041Z,100050.94
2023-01-07T02:37:59.470Z,100046.88
2023-01-07T02:38:30.921Z,100049.59
2023-01-07T02:39:02.297Z,100051.53
2023-01-07T02:39:33.737Z,100038.16
2023-01-07T02:40:05.173Z,100046.94
2023-01-07T02:40:36.725Z,100041.19
2023-01-07T02:41:08.154Z,100045.53
2023-01-07T02:41:39.576Z,100058.38
2023-01-07T02:42:11.016Z,100051.28
2023-01-07T02:42:42.449Z,100051.56
2023-01-07T02:43:13.995Z,100038.97
2023-01-07T02:43:45.393Z,100051.56
2023-01-07T02:44:16.852Z,100037.88
2023-01-07T02:44:48.294Z,100049.91
2023-01-07T02:45:19.705Z,100044.22
2023-01-07T02:45:51.273Z,100041.19
2023-01-07T02:46:22.745Z,100045.31
2023-01-07T02:46:54.206Z,100051.56
2023-01-07T02:47:25.598Z,100043.41
2023-01-07T02:47:57.059Z,100042.59
2023-01-07T02:48:28.519Z,100036.84
2023-01-07T02:49:00.006Z,100046.34
2023-01-07T02:49:31.453Z,100047.16
2023-01-07T02:50:02.880Z,100042.25
2023-01-07T02:50:34.300Z,100041.72
2023-01-07T02:51:05.801Z,100042.81
2023-01-07T02:51:37.219Z,100027.31
2023-01-07T02:52:08.634Z,100045.25
2023-01-07T02:52:40.093Z,100035.44
2023-01-07T02:53:11.518Z,100036.50
2023-01-07T02:53:42.930Z,100035.72
2023-01-07T02:54:14.413Z,100032.19
2023-01-07T02:54:45.821Z,100031.59
2023-01-07T02:55:17.280Z,100038.47
2023-01-07T02:55:48.768Z,100036.50
2023-01-07T02:56:20.280Z,100035.16
2023-01-07T02:56:51.752Z,100030.50
2023-01-07T02:57:23.206Z,100036.78
2023-01-07T02:57:54.609Z,100034.06
2023-01-07T02:58:26.063Z,100035.16
2023-01-07T02:58:57.467Z,100025.88
2023-01-07T02:59:28.928Z,100031.09
2023-01-07T03:00:00.327Z,100033.81
2023-01-07T03:00:31.740Z,100032.94
2023-01-07T03:01:03.267Z,100026.44
2023-01-07T03:01:34.851Z,100035.72
2023-01-07T03:02:06.391Z,100026.16
2023-01-07T03:02:37.861Z,100026.75
2023-01-07T03:03:09.284Z,100034.06
2023-01-07T03:03:40.762Z,100035.72
2023-01-07T03:04:12.283Z,100027.53
2023-01-07T03:04:43.713Z,100025.63
2023-01-07T03:05:15.200Z,100021.00
2023-01-07T03:05:46.641Z,100032.47
2023-01-07T03:06:18.090Z,100029.16
2023-01-07T03:06:49.490Z,100018.78
2023-01-07T03:07:20.911Z,100017.69
2023-01-07T03:07:52.397Z,100024.81
2023-01-07T03:08:23.827Z,100020.47
2023-01-07T03:08:55.277Z,100017.75
2023-01-07T03:09:26.683Z,100022.63
2023-01-07T03:09:58.080Z,100022.38
2023-01-07T03:10:29.478Z,100022.09
2023-01-07T03:11:00.892Z,100020.75
2023-01-07T03:11:32.297Z,100013.69
2023-01-07T03:12:03.722Z,100021.56
2023-01-07T03:12:35.170Z,100017.22
2023-01-07T03:13:06.720Z,100022.63
2023-01-07T03:13:38.146Z,100017.75
2023-01-07T03:14:09.611Z,100009.25
2023-01-07T03:14:41.092Z,100018.84
2023-01-07T03:15:12.519Z,100022.91
2023-01-07T03:15:44.000Z,100013.38
2023-01-07T03:16:15.418Z,100014.44
2023-01-07T03:16:46.859Z,100008.44
2023-01-07T03:17:18.254Z,100019.88
2023-01-07T03:17:49.647Z,100015.53
2023-01-07T03:18:21.036Z,100012.75
2023-01-07T03:18:52.477Z,100013.56
2023-01-07T03:19:23.896Z,100011.41
2023-01-07T03:19:55.383Z,100012.00
2023-01-07T03:20:26.842Z,100014.13
2023-01-07T03:20:58.279Z,100002.41
2023-01-07T03:21:29.684Z,100013.84
2023-01-07T03:22:01.106Z,100011.41
2023-01-07T03:22:32.509Z,100007.88
2023-01-07T03:23:03.939Z,100007.06
2023-01-07T03:23:35.397Z,100013.31
2023-01-07T03:24:06.846Z,100007.34
2023-01-07T03:24:38.325Z,100008.09
2023-01-07T03:25:09.835Z,100007.28
2023-01-07T03:25:41.271Z,100018.50
2023-01-07T03:26:12.687Z,100022.56
2023-01-07T03:26:44.086Z,100026.69
2023-01-07T03:27:15.858Z,100006.75
2023-01-07T03:27:47.281Z,100005.13
2023-01-07T03:28:18.708Z,100006.25
2023-01-07T03:28:50.141Z,100006.75
2023-01-07T03:29:21.589Z,100008.16
2023-01-07T03:29:53.015Z,100003.00
2023-01-07T03:30:24.446Z,100004.03
2023-01-07T03:30:55.823Z,99999.97
2023-01-07T03:31:27.218Z,100001.59
2023-01-07T03:31:58.718Z,100002.69
2023-01-07T03:32:30.243Z,100001.38
2023-01-07T03:33:01.726Z,100003.00
2023-01-07T03:33:33.218Z,100008.69
2023-01-07T03:34:04.611Z,99998.06
2023-01-07T03:34:36.059Z,99999.16
2023-01-07T03:35:07.499Z,100000.78
2023-01-07T03:35:38.979Z,100001.31
2023-01-07T03:36:10.392Z,100001.59
2023-01-07T03:36:41.829Z,99993.13
2023-01-07T03:37:13.285Z,99994.22
2023-01-07T03:37:44.677Z,99998.34
2023-01-07T03:38:16.108Z,100002.13
2023-01-07T03:38:47.547Z,99994.75
2023-01-07T03:39:18.977Z,99993.13
2023-01-07T03:39:50.402Z,99990.91
2023-01-07T03:40:21.840Z,99992.31
2023-01-07T03:40:53.316Z,99994.50
2023-01-07T03:41:24.711Z,99989.34
2023-01-07T03:41:56.133Z,99987.72
2023-01-07T03:42:27.586Z,99985.53
2023-01-07T03:42:59.060Z,99996.13
2023-01-07T03:43:30.512Z,99991.72
2023-01-07T03:44:01.930Z,99984.34
2023-01-07T03:44:33.339Z,99997.47
2023-01-07T03:45:04.784Z,99991.22
2023-01-07T03:45:36.229Z,99995.84
2023-01-07T03:46:07.705Z,99995.56
2023-01-07T03:46:39.168Z,99987.44
2023-01-07T03:47:10.575Z,99986.84
2023-01-07T03:47:41.994Z,99987.66
2023-01-07T03:48:13.440Z,99987.16
2023-01-07T03:48:44.867Z,99997.47
2023-01-07T03:49:16.265Z,99981.16
2023-01-07T03:49:47.689Z,99992.88
2023-01-07T03:50:19.179Z,99990.16
2023-01-07T03:50:50.650Z,99991.25
2023-01-07T03:51:22.089Z,99985.81
2023-01-07T03:51:53.558Z,99989.34
2023-01-07T03:52:25.076Z,99984.41
2023-01-07T03:52:56.536Z,99984.94
2023-01-07T03:53:27.938Z,99988.19
2023-01-07T03:53:59.395Z,99975.41
2023-01-07T03:54:30.778Z,99979.25
2023-01-07T03:55:02.191Z,99985.00
2023-01-07T03:55:33.673Z,99977.03
2023-01-07T03:56:05.071Z,99976.47
2023-01-07T03:56:36.487Z,99984.13
2023-01-07T03:57:07.883Z,99975.13
2023-01-07T03:57:39.328Z,99965.84
2023-01-07T03:58:10.731Z,99978.09
2023-01-07T03:58:42.146Z,99977.56
2023-01-07T03:59:13.655Z,99971.88
2023-01-07T03:59:45.087Z,99976.00
2023-01-07T04:00:16.576Z,99975.47
2023-01-07T04:00:48.122Z,99972.97
2023-01-07T04:01:19.820Z,99980.94
2023-01-07T04:01:51.479Z,99980.66
2023-01-07T04:02:22.982Z,99974.03
2023-01-07T04:02:54.376Z,99971.06
2023-01-07T04:03:25.851Z,99972.09
2023-01-07T04:03:57.284Z,99967.53
2023-01-07T04:04:28.785Z,99969.72
2023-01-07T04:05:00.233Z,99976.28
2023-01-07T04:05:31.688Z,99984.19
2023-01-07T04:06:03.157Z,99964.78
2023-01-07T04:06:34.535Z,99972.97
2023-01-07T04:07:05.982Z,99969.72
2023-01-07T04:07:37.398Z,99966.94
2023-01-07T04:08:08.807Z,99954.16
2023-01-07T04:08:40.284Z,99960.22
2023-01-07T04:09:11.726Z,99958.28
2023-01-07T04:09:43.168Z,99964.56
2023-01-07T04:10:14.588Z,99957.19
2023-01-07T04:10:46.013Z,99956.91
2023-01-07T04:11:17.517Z,99956.66
2023-01-07T04:11:48.985Z,99961.31
2023-01-07T04:12:20.431Z,99951.22
2023-01-07T04:12:51.873Z,99952.03
2023-01-07T04:13:23.345Z,99948.19
2023-01-07T04:13:54.749Z,99950.91
2023-01-07T04:14:26.224Z,99949.81
2023-01-07T04:14:59.245Z,99955.84
2023-01-07T04:15:30.808Z,99936.25
2023-01-07T04:16:02.293Z,99942.50
2023-01-07T04:16:33.805Z,99946.28
2023-01-07T04:17:05.296Z,99946.56
2023-01-07T04:17:36.769Z,99945.75
2023-01-07T04:18:08.161Z,99946.56
2023-01-07T04:18:39.551Z,99945.19
2023-01-07T04:19:11.007Z,99940.00
2023-01-07T04:19:42.430Z,99938.63
2023-01-07T04:20:13.864Z,99940.81
2023-01-07T04:20:45.314Z,99949.00
2023-01-07T04:21:16.737Z,99943.78
2023-01-07T04:21:48.215Z,99944.88
2023-01-07T04:22:19.672Z,99953.38
2023-01-07T04:22:51.088Z,99953.06
2023-01-07T04:23:22.463Z,99949.00
2023-01-07T04:23:54.169Z,99934.84
2023-01-07T04:24:25.591Z,99942.50
2023-01-07T04:24:57.024Z,99936.47
2023-01-07T04:25:28.414Z,99935.44
2023-01-07T04:25:59.946Z,99935.69
2023-01-07T04:26:31.416Z,99927.78
2023-01-07T04:27:02.845Z,99932.13
2023-01-07T04:27:34.286Z,99935.66
2023-01-07T04:28:05.695Z,99933.22
2023-01-07T04:28:37.124Z,99938.09
2023-01-07T04:29:08.581Z,99931.31
2023-01-07T04:29:40.008Z,99946.88
2023-01-07T04:30:11.418Z,99943.31
2023-01-07T04:30:42.900Z,99933.75
2023-01-07T04:31:14.366Z,99939.19
2023-01-07T04:31:45.838Z,99929.09
2023-01-07T04:32:17.321Z,99929.38
2023-01-07T04:32:48.785Z,99927.25
2023-01-07T04:33:20.200Z,99931.31
2023-01-07T04:33:51.664Z,99921.50
2023-01-07T04:34:23.129Z,99927.25
2023-01-07T04:34:54.617Z,99922.88
2023-01-07T04:35:26.053Z,99924.75
2023-01-07T04:35:57.547Z,99926.13
2023-01-07T04:36:28.958Z,99921.78
2023-01-07T04:37:00.333Z,99935.66
2023-01-07T04:37:31.785Z,99927.19
2023-01-07T04:38:03.228Z,99920.41
2023-01-07T04:38:34.686Z,99926.38
2023-01-07T04:39:06.184Z,99932.94
2023-01-07T04:39:37.584Z,99929.09
2023-01-07T04:40:09.040Z,99927.47
2023-01-07T04:40:40.453Z,99928.81
2023-01-07T04:41:11.852Z,99925.78
2023-01-07T04:41:43.289Z,99925.56
2023-01-07T04:42:14.699Z,99925.03
2023-01-07T04:42:46.099Z,99920.97
2023-01-07T04:43:17.499Z,99929.97
2023-01-07T04:43:48.976Z,99928.31
2023-01-07T04:44:20.450Z,99919.06
2023-01-07T04:44:51.880Z,99919.31
2023-01-07T04:45:23.370Z,99920.09
2023-01-07T04:45:54.930Z,99924.47
2023-01-07T04:46:26.568Z,99915.16
2023-01-07T04:46:58.044Z,99923.94
2023-01-07T04:47:29.448Z,99923.13
2023-01-07T04:48:00.887Z,99916.34
2023-01-07T04:48:32.389Z,99917.16
2023-01-07T04:49:03.915Z,99923.16
2023-01-07T04:49:35.616Z,99917.69
2023-01-07T04:50:07.079Z,99917.16
2023-01-07T04:50:38.469Z,99914.69
2023-01-07T04:51:09.926Z,99919.63
2023-01-07T04:51:41.349Z,99920.44
2023-01-07T04:52:12.749Z,99917.41
2023-01-07T04:52:44.143Z,99921.78
2023-01-07T04:53:15.579Z,99916.88
2023-01-07T04:53:47.009Z,99914.44
2023-01-07T04:54:18.412Z,99916.34
2023-01-07T04:54:49.878Z,99908.41
2023-01-07T04:55:21.239Z,99918.47
2023-01-07T04:55:52.671Z,99913.88
2023-01-07T04:56:24.058Z,99919.31
2023-01-07T04:56:55.527Z,99923.41
2023-01-07T04:57:26.928Z,99911.94
2023-01-07T04:57:58.369Z,99919.88
2023-01-07T04:58:29.815Z,99909.78
2023-01-07T04:59:01.239Z,99907.84
2023-01-07T04:59:32.629Z,99916.56
2023-01-07T05:00:06.764Z,99914.66
2023-01-07T05:00:38.165Z,99908.97
2023-01-07T05:01:09.663Z,99911.09
2023-01-07T05:01:41.239Z,99911.41
2023-01-07T05:02:12.901Z,99919.59
2023-01-07T05:02:44.353Z,99915.47
2023-01-07T05:03:15.782Z,99917.16
2023-01-07T05:03:47.298Z,99911.69
2023-01-07T05:04:18.714Z,99911.41
2023-01-07T05:04:50.272Z,99914.13
2023-01-07T05:05:21.778Z,99910.00
2023-01-07T05:05:53.291Z,99912.44
2023-01-07T05:06:24.759Z,99908.38
2023-01-07T05:06:56.265Z,99916.28
2023-01-07T05:07:27.753Z,99902.41
2023-01-07T05:07:59.147Z,99906.75
2023-01-07T05:08:30.586Z,99912.72
2023-01-07T05:09:01.984Z,99912.50
2023-01-07T05:09:33.379Z,99923.13
2023-01-07T05:10:04.772Z,99911.69
2023-01-07T05:10:36.198Z,99903.22
2023-01-07T05:11:07.639Z,99911.41
2023-01-07T05:11:39.070Z,99902.91
2023-01-07T05:12:10.554Z,99908.16
2023-01-07T05:12:42.120Z,99909.50
2023-01-07T05:13:13.541Z,99907.34
2023-01-07T05:13:44.985Z,99899.16
2023-01-07T05:14:16.397Z,99901.03
2023-01-07T05:14:47.856Z,99893.97
2023-01-07T05:15:19.283Z,99896.13
2023-01-07T05:15:50.729Z,99896.94
2023-01-07T05:16:22.154Z,99901.03
2023-01-07T05:16:53.587Z,99890.13
2023-01-07T05:17:25.058Z,99896.69
2023-01-07T05:17:56.488Z,99903.72
2023-01-07T05:18:27.944Z,99903.50
2023-01-07T05:18:59.363Z,99897.16
2023-01-07T05:19:30.776Z,99888.75
2023-01-07T05:20:02.231Z,99898.88
2023-01-07T05:20:33.671Z,99903.22
2023-01-07T05:21:05.153Z,99892.00
2023-01-07T05:21:36.611Z,99895.56
2023-01-07T05:22:08.017Z,99893.13
2023-01-07T05:22:39.466Z,99896.44
2023-01-07T05:23:10.965Z,99886.03
2023-01-07T05:23:42.384Z,99894.22
2023-01-07T05:24:13.805Z,99893.13
2023-01-07T05:24:45.266Z,99892.81
2023-01-07T05:25:16.728Z,99895.03
2023-01-07T05:25:48.164Z,99894.75
2023-01-07T05:26:19.656Z,99890.63
2023-01-07T05:26:51.080Z,99895.56
2023-01-07T05:27:22.489Z,99893.34
2023-01-07T05:27:53.913Z,99892.00
2023-01-07T05:28:25.411Z,99893.94
2023-01-07T05:28:56.848Z,99892.53
2023-01-07T05:29:28.278Z,99896.66
2023-01-07T05:29:59.684Z,99884.34
2023-01-07T05:30:31.138Z,99887.66
2023-01-07T05:31:02.629Z,99886.31
2023-01-07T05:31:34.120Z,99892.31
2023-01-07T05:32:05.552Z,99888.47
2023-01-07T05:32:36.980Z,99893.63
2023-01-07T05:33:08.385Z,99886.56
2023-01-07T05:33:39.900Z,99900.47
2023-01-07T05:34:11.306Z,99894.44
2023-01-07T05:34:42.747Z,99883.81
2023-01-07T05:35:14.162Z,99887.88
2023-01-07T05:35:45.597Z,99884.63
2023-01-07T05:36:17.055Z,99880.28
2023-01-07T05:36:48.531Z,99884.94
2023-01-07T05:37:19.947Z,99878.66
2023-01-07T05:37:51.366Z,99888.19
2023-01-07T05:38:22.815Z,99886.25
2023-01-07T05:38:54.331Z,99877.56
2023-01-07T05:39:25.780Z,99880.06
2023-01-07T05:39:57.211Z,99881.94
2023-01-07T05:40:28.654Z,99879.22
2023-01-07T05:41:00.057Z,99884.94
2023-01-07T05:41:31.467Z,99884.66
2023-01-07T05:42:02.934Z,99878.66
2023-01-07T05:42:34.496Z,99881.69
2023-01-07T05:43:05.960Z,99884.16
2023-01-07T05:43:37.399Z,99875.94
2023-01-07T05:44:08.874Z,99876.50
2023-01-07T05:44:40.347Z,99878.97
2023-01-07T05:45:11.760Z,99874.31
2023-01-07T05:45:43.195Z,99874.59
2023-01-07T05:46:14.644Z,99873.75
2023-01-07T05:46:46.086Z,99877.03
2023-01-07T05:47:17.499Z,99879.19
2023-01-07T05:47:48.929Z,99876.75
2023-01-07T05:48:20.356Z,99876.50
2023-01-07T05:48:51.861Z,99874.59
2023-01-07T05:49:23.338Z,99869.41
2023-01-07T05:49:54.808Z,99876.50
2023-01-07T05:50:26.226Z,99877.34
2023-01-07T05:50:57.677Z,99872.41
2023-01-07T05:51:29.089Z,99875.69
2023-01-07T05:52:00.535Z,99870.78
2023-01-07T05:52:31.964Z,99880.31
2023-01-07T05:53:03.410Z,99869.97
2023-01-07T05:53:34.912Z,99874.59
2023-01-07T05:54:06.377Z,99867.75
2023-01-07T05:54:37.920Z,99862.84
2023-01-07T05:55:09.340Z,99873.75
2023-01-07T05:55:40.763Z,99866.13
2023-01-07T05:56:12.161Z,99874.00
2023-01-07T05:56:43.627Z,99868.31
2023-01-07T05:57:15.087Z,99867.50
2023-01-07T05:57:46.504Z,99874.06
2023-01-07T05:58:17.909Z,99866.13
2023-01-07T05:58:49.322Z,99869.41
2023-01-07T05:59:20.736Z,99872.13
2023-01-07T05:59:52.297Z,99868.88
2023-01-07T06:00:23.710Z,99879.50
2023-01-07T06:00:55.222Z,99864.25
2023-01-07T06:01:26.645Z,99872.13
2023-01-07T06:01:58.057Z,99865.56
2023-01-07T06:02:29.488Z,99871.03
2023-01-07T06:03:00.953Z,99861.22